Time;durP1;ratioP1;P1;durP2;ratioP2;P2;SDS_P1;SDS_P2;PMS_P1;PMS_P2;Temp;Humidity;BMP_temperature;BMP_pressure;BME280_temperature;BME280_humidity;BME280_pressure;Samples;Min_cycle;Max_cycle;Signal;HPM_P1;HPM_P2
2022/04/01 00:01:06;;;;;;;19.57;7.57;;;;;;;12.44;77.12;95829.25;6218513;23;20168;-88
2022/04/01 00:03:35;;;;;;;25.60;7.80;;;;;;;13.14;76.01;95928.88;6182842;23;20503;-92
2022/04/01 00:06:05;;;;;;;25.70;6.90;;;;;;;13.16;75.94;95914.00;6210727;23;20164;-87
2022/04/01 00:08:35;;;;;;;22.93;8.60;;;;;;;13.02;75.62;95876.81;6207993;23;20177;-85
2022/04/01 00:11:02;;;;;;;20.27;6.97;;;;;;;13.07;75.00;95866.13;6207858;23;20166;-87
2022/04/01 00:13:29;;;;;;;22.97;7.47;;;;;;;13.20;75.99;95895.47;6182049;23;20223;-87
2022/04/01 00:15:56;;;;;;;18.13;7.37;;;;;;;13.12;75.40;95890.03;6207035;23;20169;-87
2022/04/01 00:18:25;;;;;;;18.63;6.77;;;;;;;13.03;75.72;95888.06;6208610;23;20191;-87
2022/04/01 00:20:53;;;;;;;22.93;7.03;;;;;;;12.69;75.61;95844.72;6208305;23;20188;-83
2022/04/01 00:23:22;;;;;;;18.57;6.77;;;;;;;13.18;75.91;95906.91;6208563;23;20223;-85
2022/04/01 00:25:49;;;;;;;29.90;7.80;;;;;;;13.02;76.30;95887.22;6207287;23;20253;-85
2022/04/01 00:28:17;;;;;;;25.07;7.20;;;;;;;13.14;76.20;95902.91;6208262;23;20499;-86
2022/04/01 00:30:45;;;;;;;25.80;7.23;;;;;;;13.14;76.06;95900.28;6209522;23;20164;-85
2022/04/01 00:33:17;;;;;;;20.43;7.43;;;;;;;13.02;75.94;95848.22;6184016;23;20194;-89
2022/04/01 00:35:44;;;;;;;23.77;7.63;;;;;;;12.92;75.41;95813.47;6211405;23;20191;-91
2022/04/01 00:38:13;;;;;;;23.20;7.33;;;;;;;13.13;75.14;95824.06;6183479;23;20167;-88
2022/04/01 00:40:41;;;;;;;20.87;8.17;;;;;;;13.08;74.97;95800.22;6208304;23;20165;-93
2022/04/01 00:43:09;;;;;;;21.73;7.03;;;;;;;13.16;74.88;95812.63;6210476;23;20176;-89
2022/04/01 00:45:36;;;;;;;16.23;6.73;;;;;;;13.05;74.93;95816.88;6232567;23;20198;-86
2022/04/01 00:48:04;;;;;;;22.03;6.93;;;;;;;13.18;74.94;95821.13;6211919;23;20172;-89
2022/04/01 00:50:32;;;;;;;23.90;7.23;;;;;;;13.33;74.10;95804.38;6236838;23;20170;-87
2022/04/01 00:53:01;;;;;;;23.03;6.97;;;;;;;13.34;73.56;95795.63;6240091;23;20191;-89
2022/04/01 00:55:28;;;;;;;18.23;6.50;;;;;;;13.29;73.67;95797.75;6240122;23;20190;-87
2022/04/01 00:57:56;;;;;;;19.20;6.33;;;;;;;13.27;74.23;95781.47;6236037;23;20203;-95
2022/04/01 01:00:25;;;;;;;21.60;7.17;;;;;;;13.34;73.48;95796.47;6212757;23;20169;-85
2022/04/01 01:02:54;;;;;;;24.53;6.70;;;;;;;13.28;73.42;95793.50;6188207;23;20198;-87
2022/04/01 01:05:21;;;;;;;19.63;6.37;;;;;;;13.24;73.14;95758.28;6216094;23;20245;-94
2022/04/01 01:07:48;;;;;;;20.17;7.43;;;;;;;12.75;73.65;95686.63;6215492;23;20248;-92
2022/04/01 01:10:19;;;;;;;26.47;7.37;;;;;;;13.22;72.97;95747.16;6224021;23;20185;-90
2022/04/01 01:12:46;;;;;;;16.97;6.50;;;;;;;13.37;72.94;95764.19;6189650;23;20201;-93
2022/04/01 01:15:18;;;;;;;18.73;7.00;;;;;;;13.22;72.52;95709.00;6210904;23;20165;-93
2022/04/01 01:17:46;;;;;;;19.40;7.40;;;;;;;13.17;73.00;95711.13;6212581;23;20710;-92
2022/04/01 01:20:15;;;;;;;17.97;6.80;;;;;;;13.30;72.40;95724.00;6212855;23;20164;-95
2022/04/01 01:22:49;;;;;;;15.67;6.40;;;;;;;13.39;72.99;95744.09;6212330;23;20220;-94
2022/04/01 01:25:18;;;;;;;30.60;7.73;;;;;;;13.41;72.31;95747.41;6211540;23;20214;-94
2022/04/01 01:27:49;;;;;;;22.57;7.93;;;;;;;13.39;71.87;95707.69;6211738;23;20170;-93
2022/04/01 01:30:17;;;;;;;27.90;6.93;;;;;;;13.53;72.06;95734.28;6213055;23;20173;-94
2022/04/01 01:32:46;;;;;;;14.67;5.63;;;;;;;13.55;71.20;95721.16;6212458;23;20170;-94
2022/04/01 01:35:14;;;;;;;21.70;6.30;;;;;;;13.33;72.25;95714.22;6210901;23;20175;-95
2022/04/01 01:37:41;;;;;;;22.63;7.07;;;;;;;13.08;72.54;95688.47;6212627;23;20866;-93
2022/04/01 01:40:09;;;;;;;28.67;6.90;;;;;;;13.26;72.43;95709.59;6213825;23;20164;-94
2022/04/01 01:42:37;;;;;;;14.73;6.07;;;;;;;13.33;72.19;95722.03;6211546;23;20172;-95
2022/04/01 01:45:05;;;;;;;26.27;8.03;;;;;;;13.20;71.95;95691.88;6186618;23;20180;-94
2022/04/01 01:47:34;;;;;;;26.93;7.13;;;;;;;13.47;72.38;95728.72;6185885;23;20231;-94
2022/04/01 01:55:35;;;;;;;28.37;7.50;;;;;;;13.14;72.84;95700.13;6229721;23;20195;-88
2022/04/01 01:58:05;;;;;;;17.97;6.57;;;;;;;13.20;73.50;95712.66;6222841;23;20229;-88
2022/04/01 02:00:35;;;;;;;22.43;6.40;;;;;;;13.29;72.23;95698.97;6220390;23;20213;-89
2022/04/01 02:03:04;;;;;;;25.90;7.00;;;;;;;13.18;72.76;95679.00;6222860;23;20257;-90
2022/04/01 02:05:31;;;;;;;17.07;6.03;;;;;;;13.05;71.86;95654.91;6220871;23;20174;-93
2022/04/01 02:08:00;;;;;;;17.97;6.90;;;;;;;13.48;71.60;95728.59;6219895;23;20205;-93
2022/04/01 02:10:28;;;;;;;20.90;6.37;;;;;;;13.29;71.44;95691.16;6220884;23;20184;-90
2022/04/01 02:12:55;;;;;;;23.47;6.60;;;;;;;13.51;71.16;95733.59;6225902;23;20192;-90
2022/04/01 02:15:25;;;;;;;21.00;5.93;;;;;;;13.58;71.20;95746.94;6223540;23;20687;-94
2022/04/01 02:17:56;;;;;;;24.73;6.07;;;;;;;13.66;70.65;95727.16;6235815;23;20224;-93
2022/04/01 02:20:23;;;;;;;21.03;6.53;;;;;;;13.67;70.82;95704.56;6236370;23;20169;-88
2022/04/01 02:22:53;;;;;;;21.03;6.53;;;;;;;13.53;70.37;95704.84;6209618;23;20228;-87
2022/04/01 02:25:20;;;;;;;22.87;6.53;;;;;;;13.48;70.75;95722.56;6229766;23;20182;-95
2022/04/01 02:27:48;;;;;;;22.73;7.40;;;;;;;13.36;70.94;95703.56;6211628;23;20241;-95
2022/04/01 02:30:16;;;;;;;25.23;6.40;;;;;;;13.49;70.69;95721.63;6186157;23;20179;-91
2022/04/01 02:33:06;;;;;;;16.77;6.23;;;;;;;13.43;71.30;95711.72;6183229;23;20200;-95
2022/04/01 02:35:43;;;;;;;24.37;6.93;;;;;;;13.44;71.08;95709.00;6210520;23;20162;-95
2022/04/01 02:38:12;;;;;;;21.70;7.10;;;;;;;13.24;71.17;95688.09;6210854;23;20177;-90
2022/04/01 02:40:41;;;;;;;21.53;7.40;;;;;;;13.43;70.42;95706.50;6209995;23;20172;-92
2022/04/01 02:43:08;;;;;;;24.33;7.60;;;;;;;13.11;71.44;95664.00;6210482;23;20167;-93
2022/04/01 02:45:38;;;;;;;21.03;7.03;;;;;;;13.41;70.69;95704.03;6214155;23;20186;-86
2022/04/01 02:48:06;;;;;;;21.00;6.87;;;;;;;13.49;70.59;95703.44;6185110;23;20165;-85
2022/04/01 02:51:05;;;;;;;21.37;7.00;;;;;;;13.51;70.67;95697.16;6212783;23;20661;-84
2022/04/01 02:53:47;;;;;;;23.90;7.17;;;;;;;13.49;70.85;95706.03;6128075;23;20212;-84
2022/04/01 02:56:40;;;;;;;25.17;7.70;;;;;;;13.56;70.36;95705.41;6205546;23;20172;-85
2022/04/01 02:59:11;;;;;;;24.17;7.77;;;;;;;13.36;69.94;95679.31;6186474;23;20169;-84
2022/04/01 03:01:40;;;;;;;22.30;7.17;;;;;;;13.23;70.13;95652.66;6224780;23;20167;-86
2022/04/01 03:04:11;;;;;;;21.07;8.20;;;;;;;13.54;69.53;95709.91;6222962;23;20175;-87
2022/04/01 03:06:49;;;;;;;28.60;8.07;;;;;;;13.17;70.17;95650.53;6216659;23;20206;-86
2022/04/01 03:09:16;;;;;;;29.50;7.70;;;;;;;13.50;69.82;95718.91;6221018;23;20194;-85
2022/04/01 03:11:54;;;;;;;23.80;7.40;;;;;;;13.23;70.18;95686.44;6160596;23;20553;-89
2022/04/01 03:14:42;;;;;;;29.13;7.97;;;;;;;13.32;70.12;95683.13;6210934;23;20200;-89
2022/04/01 03:17:30;;;;;;;26.53;7.87;;;;;;;13.29;70.25;95691.97;6210454;23;20230;-85
2022/04/01 03:20:02;;;;;;;25.13;8.43;;;;;;;13.20;70.69;95702.25;6210819;23;20264;-84
2022/04/01 03:22:38;;;;;;;19.47;7.57;;;;;;;13.32;71.07;95725.53;6184811;23;20176;-85
2022/04/01 03:25:06;;;;;;;24.87;8.57;;;;;;;13.13;71.11;95724.50;6207827;23;20163;-85
2022/04/01 03:27:48;;;;;;;28.47;9.00;;;;;;;13.27;70.37;95732.06;6160486;23;20675;-91
2022/04/01 03:30:18;;;;;;;22.93;8.73;;;;;;;13.35;70.58;95747.91;6208586;23;20183;-89
2022/04/01 03:32:46;;;;;;;31.30;9.90;;;;;;;13.22;70.17;95723.78;6208898;23;20173;-89
2022/04/01 03:35:17;;;;;;;33.90;10.33;;;;;;;13.40;69.87;95753.53;6207775;23;20194;-87
2022/04/01 03:37:45;;;;;;;32.37;7.80;;;;;;;13.21;71.06;95759.34;6209546;23;20645;-90
2022/04/01 03:40:14;;;;;;;28.40;8.57;;;;;;;13.30;70.46;95773.41;6218349;23;20162;-89
2022/04/01 03:42:47;;;;;;;29.07;8.73;;;;;;;13.24;70.07;95761.72;6213753;23;20165;-93
2022/04/01 03:45:14;;;;;;;29.63;9.00;;;;;;;13.05;70.06;95741.50;6210533;23;20166;-95
2022/04/01 03:48:04;;;;;;;37.57;10.03;;;;;;;13.18;69.19;95732.75;6211099;23;20168;-94
2022/04/01 03:50:33;;;;;;;28.03;8.87;;;;;;;13.36;68.90;95763.38;6210793;23;20172;-92
2022/04/01 03:53:11;;;;;;;35.57;9.33;;;;;;;13.28;69.29;95749.28;6219489;23;20182;-86
2022/04/01 03:55:45;;;;;;;30.37;9.90;;;;;;;13.31;69.50;95762.06;6219940;23;20170;-93
2022/04/01 03:58:34;;;;;;;41.73;10.33;;;;;;;13.26;69.22;95756.38;6150299;23;20177;-92
2022/04/01 04:01:20;;;;;;;30.33;8.27;;;;;;;13.30;68.16;95750.84;6210693;23;20474;-89
2022/04/01 04:03:52;;;;;;;30.37;8.50;;;;;;;13.28;68.37;95750.13;6211494;23;20247;-88
2022/04/01 04:06:23;;;;;;;35.73;9.17;;;;;;;13.20;68.24;95742.09;6211194;23;20184;-93
2022/04/01 04:08:55;;;;;;;28.90;8.47;;;;;;;13.08;67.89;95675.47;6208384;23;20178;-92
2022/04/01 04:11:26;;;;;;;32.93;8.40;;;;;;;13.34;67.68;95709.81;6187385;23;20201;-87
2022/04/01 04:14:19;;;;;;;26.77;8.10;;;;;;;13.46;67.15;95703.66;6193000;23;20205;-90
2022/04/01 04:16:47;;;;;;;33.90;8.47;;;;;;;13.56;66.24;95699.41;6209332;23;20178;-94
2022/04/01 04:19:39;;;;;;;31.53;9.37;;;;;;;13.37;67.09;95686.19;6208690;23;20544;-94
2022/04/01 04:22:16;;;;;;;33.50;9.10;;;;;;;13.46;67.46;95701.06;6151715;23;20583;-87
2022/04/01 04:24:58;;;;;;;38.67;8.97;;;;;;;13.49;67.55;95732.03;6188837;23;20689;-92
2022/04/01 04:27:29;;;;;;;33.57;9.23;;;;;;;13.47;67.25;95720.94;6219571;23;20161;-93
2022/04/01 04:30:09;;;;;;;28.90;9.00;;;;;;;13.48;67.48;95706.97;6205330;23;20163;-84
2022/04/01 04:33:09;;;;;;;32.27;10.30;;;;;;;13.35;68.32;95719.28;6230504;23;20176;-84
2022/04/01 04:35:43;;;;;;;37.83;10.43;;;;;;;13.30;68.18;95711.00;6207999;23;20254;-84
2022/04/01 04:38:13;;;;;;;46.07;9.23;;;;;;;13.55;67.41;95721.16;6236098;23;20161;-84
2022/04/01 04:40:47;;;;;;;32.20;8.50;;;;;;;13.35;67.44;95688.09;6187990;23;20182;-86
2022/04/01 04:43:33;;;;;;;37.97;10.10;;;;;;;13.31;67.27;95671.91;6236110;23;20232;-84
2022/04/01 04:46:11;;;;;;;41.20;9.50;;;;;;;13.67;66.98;95736.63;6202904;23;20172;-85
2022/04/01 04:48:52;;;;;;;34.10;8.70;;;;;;;13.54;67.27;95722.91;6215776;23;20180;-84
2022/04/01 04:51:34;;;;;;;25.77;8.40;;;;;;;13.66;66.78;95734.97;6220569;23;20156;-85
2022/04/01 04:54:21;;;;;;;30.53;8.47;;;;;;;13.57;67.37;95734.88;6241006;23;20226;-85
2022/04/01 04:57:10;;;;;;;29.93;9.30;;;;;;;13.61;67.50;95733.69;6237157;23;20165;-84
2022/04/01 04:59:46;;;;;;;41.53;9.50;;;;;;;13.02;67.28;95632.53;6234326;23;20169;-84
2022/04/01 05:02:42;;;;;;;27.33;8.93;;;;;;;13.39;67.71;95694.69;6232088;23;20212;-83
2022/04/01 05:05:46;;;;;;;30.47;9.43;;;;;;;13.74;67.03;95701.38;6233220;23;20174;-84
2022/04/01 05:08:50;;;;;;;32.27;9.40;;;;;;;13.80;66.94;95720.88;6232453;23;20168;-83
2022/04/01 05:12:28;;;;;;;40.97;9.17;;;;;;;13.96;66.67;95721.31;6226646;23;20173;-84
2022/04/01 05:15:41;;;;;;;39.43;8.97;;;;;;;13.89;66.75;95720.97;6153760;23;20217;-84
2022/04/01 05:18:48;;;;;;;28.23;8.67;;;;;;;13.76;67.08;95696.88;6223444;23;20174;-84
2022/04/01 05:21:23;;;;;;;37.47;11.17;;;;;;;14.24;66.45;95735.53;6196979;23;20172;-84
2022/04/01 05:24:01;;;;;;;32.97;9.40;;;;;;;14.37;66.06;95736.22;6179249;23;20177;-84
2022/04/01 05:26:40;;;;;;;35.00;9.03;;;;;;;14.37;65.92;95734.44;6208366;23;20187;-84
2022/04/01 05:29:25;;;;;;;31.07;9.20;;;;;;;14.65;65.78;95740.84;6238506;23;20165;-84
2022/04/01 05:32:05;;;;;;;46.50;12.77;;;;;;;14.72;64.85;95722.91;6234426;23;20169;-85
2022/04/01 05:34:43;;;;;;;49.03;16.40;;;;;;;14.92;64.19;95740.31;6203359;23;20184;-86
2022/04/01 05:37:16;;;;;;;44.27;11.73;;;;;;;14.73;65.17;95729.78;6228117;23;20177;-85
2022/04/01 05:39:46;;;;;;;36.87;9.70;;;;;;;14.56;64.83;95698.13;6228259;23;20169;-84
2022/04/01 05:42:25;;;;;;;32.63;9.33;;;;;;;14.72;65.06;95721.13;6229825;23;20610;-85
2022/04/01 05:45:20;;;;;;;35.47;9.63;;;;;;;14.53;65.12;95671.47;6226775;23;20193;-83
2022/04/01 05:48:09;;;;;;;27.80;9.10;;;;;;;14.93;64.56;95719.34;6205955;23;20209;-86
2022/04/01 05:50:44;;;;;;;32.57;9.13;;;;;;;15.09;64.26;95732.72;6206424;23;20213;-85
2022/04/01 05:53:14;;;;;;;57.87;10.97;;;;;;;15.01;64.71;95706.47;6231756;23;20648;-83
2022/04/01 05:55:51;;;;;;;38.63;10.90;;;;;;;15.28;64.26;95718.97;6232219;23;20696;-85
2022/04/01 05:58:21;;;;;;;34.83;9.77;;;;;;;15.26;63.54;95693.00;6231975;23;20172;-84
2022/04/01 06:01:10;;;;;;;38.43;10.70;;;;;;;15.58;63.05;95715.53;6228902;23;20174;-84
2022/04/01 06:04:13;;;;;;;35.03;9.27;;;;;;;15.50;63.34;95708.34;6204337;23;20617;-85
2022/04/01 06:06:42;;;;;;;32.10;8.90;;;;;;;15.31;63.22;95687.41;6085364;23;20176;-85
2022/04/01 06:09:50;;;;;;;34.03;8.93;;;;;;;15.64;62.82;95728.06;6062706;23;20181;-84
2022/04/01 06:12:58;;;;;;;29.07;10.27;;;;;;;15.89;62.20;95719.75;6108017;23;20211;-84
2022/04/01 06:16:04;;;;;;;27.63;8.80;;;;;;;15.61;62.86;95716.09;6213490;23;20261;-84
2022/04/01 06:19:10;;;;;;;29.23;10.83;;;;;;;15.87;62.39;95713.81;6233021;23;20178;-85
2022/04/01 06:21:47;;;;;;;31.40;10.07;;;;;;;15.98;61.78;95708.47;6233918;23;20167;-85
2022/04/01 06:24:30;;;;;;;28.07;8.87;;;;;;;16.12;61.09;95689.78;6206334;23;20159;-85
2022/04/01 06:27:02;;;;;;;31.43;10.30;;;;;;;15.99;61.26;95684.03;6238113;23;20169;-85
2022/04/01 06:29:38;;;;;;;39.23;11.40;;;;;;;16.39;60.62;95705.63;6238852;23;20186;-87
2022/04/01 06:32:17;;;;;;;29.00;9.30;;;;;;;16.36;59.70;95697.25;6236932;23;20226;-83
2022/04/01 06:35:11;;;;;;;35.70;9.80;;;;;;;16.32;60.18;95719.38;6236739;23;20209;-84
2022/04/01 06:38:00;;;;;;;39.10;10.03;;;;;;;16.33;59.53;95719.22;6236920;23;20154;-85
2022/04/01 06:40:47;;;;;;;30.40;8.70;;;;;;;16.10;59.87;95683.88;6236044;23;20203;-84
2022/04/01 06:43:21;;;;;;;43.10;9.93;;;;;;;16.44;59.42;95710.44;6232298;23;20164;-84
2022/04/01 06:46:28;;;;;;;30.03;10.87;;;;;;;16.39;59.21;95671.66;6235146;23;20171;-83
2022/04/01 06:48:59;;;;;;;26.43;9.83;;;;;;;16.46;59.10;95648.41;6236855;23;20163;-84
2022/04/01 06:51:49;;;;;;;29.73;9.83;;;;;;;16.73;58.51;95690.34;6211207;23;20187;-83
2022/04/01 06:54:37;;;;;;;26.30;9.63;;;;;;;16.66;58.10;95647.44;6235717;23;20770;-84
2022/04/01 06:57:24;;;;;;;29.33;9.70;;;;;;;17.15;57.40;95698.63;6228299;23;20935;-84
2022/04/01 07:00:14;;;;;;;36.97;10.07;;;;;;;16.84;57.55;95679.72;6217422;23;20190;-85
2022/04/01 07:02:43;;;;;;;27.87;9.93;;;;;;;16.90;57.83;95687.00;6221936;23;20226;-84
2022/04/01 07:05:13;;;;;;;34.80;12.00;;;;;;;16.95;57.38;95663.88;6226345;23;20171;-84
2022/04/01 07:07:44;;;;;;;31.20;9.57;;;;;;;16.96;57.10;95676.00;6223695;23;20252;-85
2022/04/01 07:10:11;;;;;;;31.97;9.27;;;;;;;17.14;57.16;95700.44;6200104;23;20173;-84
2022/04/01 07:12:42;;;;;;;36.33;10.67;;;;;;;17.44;56.59;95701.97;6176529;23;20230;-85
2022/04/01 07:15:11;;;;;;;28.80;10.17;;;;;;;17.53;55.99;95672.34;6226681;23;20198;-84
2022/04/01 07:17:40;;;;;;;34.50;10.00;;;;;;;17.76;55.80;95697.16;6226183;23;20177;-86
2022/04/01 07:20:13;;;;;;;33.70;9.93;;;;;;;17.76;55.77;95697.97;6203217;23;20176;-84
2022/04/01 07:22:53;;;;;;;34.13;10.40;;;;;;;17.70;54.75;95658.47;6205107;23;20172;-84
2022/04/01 07:25:23;;;;;;;37.67;10.53;;;;;;;17.91;55.52;95679.16;6225224;23;20163;-84
2022/04/01 07:27:55;;;;;;;38.00;9.50;;;;;;;18.18;54.74;95676.47;6225433;23;20169;-83
2022/04/01 07:30:23;;;;;;;35.07;9.60;;;;;;;18.45;53.53;95671.19;6173163;23;20172;-85
2022/04/01 07:32:59;;;;;;;30.77;9.83;;;;;;;18.17;53.42;95641.59;6225211;23;20534;-84
2022/04/01 07:35:29;;;;;;;31.40;10.53;;;;;;;18.28;53.52;95641.34;6223909;23;20704;-86
2022/04/01 07:37:57;;;;;;;28.70;9.00;;;;;;;18.05;52.67;95592.19;6219021;23;20172;-85
2022/04/01 07:40:34;;;;;;;30.80;9.83;;;;;;;18.35;53.16;95631.91;6218255;23;20171;-86
2022/04/01 07:43:03;;;;;;;34.03;10.20;;;;;;;18.37;52.64;95624.72;6218824;23;20195;-84
2022/04/01 07:45:33;;;;;;;33.27;8.93;;;;;;;18.50;52.31;95656.66;6218321;23;20218;-84
2022/04/01 07:48:01;;;;;;;29.63;9.37;;;;;;;18.50;52.95;95640.09;6221951;23;20200;-83
2022/04/01 07:50:28;;;;;;;29.07;9.10;;;;;;;18.53;52.59;95624.03;6221806;23;20177;-85
2022/04/01 07:52:56;;;;;;;37.70;10.23;;;;;;;18.62;52.95;95623.97;6223208;23;20184;-86
2022/04/01 07:55:23;;;;;;;31.20;9.20;;;;;;;18.70;52.84;95649.41;6223405;23;20607;-84
2022/04/01 07:57:53;;;;;;;26.57;9.20;;;;;;;18.32;53.12;95613.84;6220726;23;20165;-86
2022/04/01 08:00:44;;;;;;;33.87;9.47;;;;;;;18.47;52.98;95646.47;6222968;23;20165;-84
2022/04/01 08:03:12;;;;;;;24.67;7.93;;;;;;;18.88;52.27;95642.31;6217856;23;20537;-85
2022/04/01 08:05:40;;;;;;;40.27;10.00;;;;;;;19.07;51.21;95633.41;6194805;23;20230;-84
2022/04/01 08:08:11;;;;;;;36.87;9.63;;;;;;;18.68;50.87;95557.78;6225685;23;20268;-86
2022/04/01 08:10:45;;;;;;;35.57;9.83;;;;;;;19.31;50.45;95642.22;6176551;23;20177;-84
2022/04/01 08:13:33;;;;;;;38.80;8.73;;;;;;;19.17;50.67;95634.94;6181620;23;20263;-85
2022/04/01 08:16:08;;;;;;;37.40;9.40;;;;;;;19.16;50.43;95632.47;6175377;23;20574;-84
2022/04/01 08:18:44;;;;;;;30.53;9.23;;;;;;;18.97;50.67;95612.53;6198572;23;20178;-85
2022/04/01 08:21:48;;;;;;;37.27;10.07;;;;;;;19.06;50.67;95624.69;6226824;23;20167;-84
2022/04/01 08:24:25;;;;;;;38.80;11.07;;;;;;;19.19;50.47;95625.09;6178304;23;20205;-86
2022/04/01 08:26:55;;;;;;;31.33;8.47;;;;;;;19.21;49.76;95628.41;6224023;23;20256;-85
2022/04/01 08:29:27;;;;;;;39.57;9.53;;;;;;;19.35;49.79;95629.66;6200611;23;20169;-84
2022/04/01 08:32:06;;;;;;;29.67;9.67;;;;;;;19.28;49.32;95615.47;6233617;23;20149;-85
2022/04/01 08:34:37;;;;;;;32.53;9.37;;;;;;;19.29;49.30;95602.19;6232805;23;20224;-84
2022/04/01 08:37:11;;;;;;;32.60;9.13;;;;;;;19.64;48.98;95613.50;6236912;23;20168;-84
2022/04/01 08:39:43;;;;;;;35.17;8.87;;;;;;;19.22;48.67;95542.59;6234672;23;20229;-83
2022/04/01 08:42:13;;;;;;;33.87;8.77;;;;;;;19.44;48.67;95612.94;6236901;23;20180;-84
2022/04/01 08:44:45;;;;;;;40.93;8.17;;;;;;;19.33;48.56;95608.78;6236649;23;20183;-83
2022/04/01 08:47:15;;;;;;;36.00;9.57;;;;;;;19.43;48.03;95567.47;6236086;23;20196;-87
2022/04/01 08:49:45;;;;;;;35.47;8.30;;;;;;;19.51;48.29;95586.88;6235454;23;20174;-85
2022/04/01 08:52:12;;;;;;;44.00;10.27;;;;;;;19.64;48.02;95595.13;6237124;23;20861;-85
2022/04/01 08:54:40;;;;;;;39.40;8.93;;;;;;;19.52;47.84;95583.25;6227388;23;20175;-84
2022/04/01 08:57:19;;;;;;;29.07;9.80;;;;;;;19.72;48.20;95603.00;6226663;23;20181;-84
2022/04/01 08:59:50;;;;;;;37.07;9.83;;;;;;;19.67;47.45;95535.19;6223634;23;20177;-84
2022/04/01 09:02:19;;;;;;;43.33;9.77;;;;;;;19.89;48.02;95587.09;6222641;23;20180;-84
2022/04/01 09:04:53;;;;;;;38.93;9.57;;;;;;;19.59;47.66;95540.44;6216107;23;20173;-86
2022/04/01 09:07:25;;;;;;;36.73;9.07;;;;;;;19.68;47.80;95530.75;6219471;23;20185;-84
2022/04/01 09:10:07;;;;;;;41.27;9.20;;;;;;;19.88;47.79;95561.81;6218309;23;20194;-85
2022/04/01 09:12:51;;;;;;;31.10;8.67;;;;;;;19.82;47.45;95540.63;6216649;23;20197;-86
2022/04/01 09:15:45;;;;;;;37.87;9.93;;;;;;;19.84;48.46;95571.03;6219872;23;20264;-84
2022/04/01 09:18:13;;;;;;;40.57;9.70;;;;;;;19.93;48.33;95559.50;6219266;23;20179;-83
2022/04/01 09:20:50;;;;;;;38.53;9.40;;;;;;;19.87;47.38;95501.53;6216880;23;20165;-85
2022/04/01 09:23:24;;;;;;;33.83;8.50;;;;;;;20.21;47.34;95553.00;6222123;23;20165;-84
2022/04/01 09:26:00;;;;;;;35.70;10.00;;;;;;;20.14;47.67;95551.16;6238970;23;20207;-84
2022/04/01 09:28:33;;;;;;;45.90;10.03;;;;;;;19.99;46.85;95510.75;6236801;23;20200;-85
2022/04/01 09:31:12;;;;;;;44.10;9.30;;;;;;;20.23;47.23;95532.63;6238019;23;20162;-84
2022/04/01 09:52:28;;;;;;;34.30;8.80;;;;;;;20.89;43.74;95471.78;5843401;24;20214;-84
2022/04/01 10:14:29;;;;;;;44.00;10.00;;;;;;;21.64;42.77;95485.19;6044202;23;20308;-86
2022/04/01 10:17:00;;;;;;;29.87;8.67;;;;;;;22.01;42.15;95485.25;6070687;23;20211;-85
2022/04/01 10:19:34;;;;;;;40.47;9.20;;;;;;;22.22;40.23;95477.50;6114619;23;20173;-82
2022/04/01 10:22:02;;;;;;;45.23;10.13;;;;;;;22.29;41.08;95467.88;6188790;23;20174;-85
2022/04/01 10:24:52;;;;;;;41.40;10.20;;;;;;;22.19;41.40;95490.22;6238998;23;20230;-85
2022/04/01 10:27:32;;;;;;;36.43;8.83;;;;;;;21.81;41.87;95445.41;6213458;23;20224;-85
2022/04/01 10:30:00;;;;;;;32.07;8.23;;;;;;;21.69;42.08;95462.59;6239731;23;20174;-87
2022/04/01 10:32:43;;;;;;;37.37;9.90;;;;;;;21.86;41.97;95452.78;6239469;23;20163;-84
2022/04/01 10:35:32;;;;;;;42.63;9.80;;;;;;;21.98;42.02;95454.00;6189016;23;20230;-86
2022/04/01 10:38:11;;;;;;;29.57;8.70;;;;;;;21.88;42.13;95462.13;6240728;23;20155;-84
2022/04/01 10:40:41;;;;;;;34.30;8.53;;;;;;;21.91;41.83;95460.16;6239456;23;20222;-85
2022/04/01 10:43:27;;;;;;;36.40;8.87;;;;;;;21.75;42.69;95466.34;6213153;23;20183;-84
2022/04/01 10:46:16;;;;;;;33.83;9.00;;;;;;;21.87;42.44;95457.03;6213415;23;20163;-85
2022/04/01 10:52:05;;;;;;;41.50;9.03;;;;;;;21.53;42.68;95461.91;6236637;22;20183;-84
2022/04/01 10:54:37;;;;;;;45.20;10.83;;;;;;;21.38;42.91;95395.16;6204779;23;20187;-84
2022/04/01 10:57:07;;;;;;;39.50;9.57;;;;;;;21.36;43.29;95440.13;6229920;23;20214;-82
2022/04/01 10:59:40;;;;;;;36.57;9.90;;;;;;;21.58;43.15;95430.56;6228942;23;20229;-85
2022/04/01 11:02:23;;;;;;;32.73;8.70;;;;;;;21.65;43.15;95432.34;6230379;23;20202;-83
2022/04/01 11:04:52;;;;;;;46.43;10.33;;;;;;;21.88;42.25;95424.44;6203413;23;20168;-84
2022/04/01 11:07:22;;;;;;;31.17;8.87;;;;;;;21.91;41.96;95439.88;6176368;23;20167;-84
2022/04/01 11:14:24;;;;;;;40.50;9.03;;;;;;;21.88;42.09;95434.97;6228017;23;20177;-83
2022/04/01 11:16:53;;;;;;;38.27;8.60;;;;;;;21.81;42.39;95423.47;6203109;23;20226;-83
2022/04/01 11:19:25;;;;;;;42.67;9.10;;;;;;;21.35;42.13;95343.66;6149574;23;20199;-82
2022/04/01 11:21:58;;;;;;;46.03;9.97;;;;;;;21.73;42.36;95427.00;6173879;23;20531;-83
2022/04/01 11:24:38;;;;;;;36.80;8.10;;;;;;;21.02;43.40;95342.25;6170985;23;20223;-84
2022/04/01 11:27:25;;;;;;;39.23;9.87;;;;;;;21.54;43.68;95422.19;6167847;23;20259;-86
2022/04/01 11:30:13;;;;;;;44.47;9.83;;;;;;;21.41;44.17;95406.16;6194557;23;20581;-85
2022/04/01 11:32:44;;;;;;;32.60;8.77;;;;;;;21.65;44.17;95434.13;6189703;23;20176;-83
2022/04/01 11:35:17;;;;;;;38.00;9.23;;;;;;;21.59;44.03;95424.31;6166413;23;20225;-84
2022/04/01 11:37:48;;;;;;;39.87;9.57;;;;;;;21.28;44.04;95405.09;6137510;23;20171;-85
2022/04/01 11:40:16;;;;;;;39.40;9.57;;;;;;;21.50;43.41;95399.00;6162601;23;20163;-84
2022/04/01 11:42:52;;;;;;;40.87;8.47;;;;;;;21.75;42.97;95424.16;6137038;23;20228;-84
2022/04/01 11:45:47;;;;;;;33.67;9.90;;;;;;;21.61;42.79;95390.69;6192278;23;20168;-84
2022/04/01 11:48:29;;;;;;;36.63;9.23;;;;;;;21.82;42.61;95407.50;6167231;23;20171;-86
2022/04/01 11:51:09;;;;;;;36.60;9.17;;;;;;;21.70;43.26;95381.75;6186321;23;20179;-84
2022/04/01 11:53:45;;;;;;;43.70;9.10;;;;;;;21.81;43.53;95407.63;6162854;23;20239;-84
2022/04/01 11:56:15;;;;;;;44.57;9.60;;;;;;;21.76;43.10;95381.03;6188883;23;20211;-84
2022/04/01 11:58:46;;;;;;;35.67;9.23;;;;;;;21.70;42.91;95387.00;6168194;23;20686;-85
2022/04/01 12:01:56;;;;;;;48.63;9.37;;;;;;;21.78;42.76;95389.56;6191759;23;20168;-85
2022/04/01 12:04:36;;;;;;;32.50;8.10;;;;;;;21.53;43.03;95328.38;6188477;23;20203;-87
2022/04/01 12:10:01;;;;;;;32.80;8.73;;;;;;;21.71;42.27;95342.03;6189904;23;20169;-84
2022/04/01 12:12:31;;;;;;;37.80;9.50;;;;;;;21.54;42.56;95373.94;6188645;23;20247;-85
2022/04/01 12:15:00;;;;;;;31.63;8.30;;;;;;;21.40;43.24;95353.66;6194215;23;20713;-85
2022/04/01 12:17:29;;;;;;;28.47;8.60;;;;;;;21.32;43.55;95343.19;6196453;23;20699;-85
2022/04/01 12:20:13;;;;;;;35.97;9.07;;;;;;;21.88;43.20;95376.16;6196129;23;20197;-84
2022/04/01 12:23:02;;;;;;;36.57;9.00;;;;;;;21.91;43.08;95371.34;6222047;23;20175;-85
2022/04/01 12:25:32;;;;;;;40.90;9.47;;;;;;;22.06;42.64;95366.06;6192264;23;20236;-84
2022/04/01 12:28:12;;;;;;;37.87;10.03;;;;;;;22.11;42.47;95359.28;6220869;23;20187;-85
2022/04/01 12:30:44;;;;;;;31.27;8.30;;;;;;;22.17;42.93;95355.91;6218513;23;20559;-87
2022/04/01 12:33:21;;;;;;;38.87;9.00;;;;;;;21.33;43.18;95250.84;6220512;23;20179;-85
2022/04/01 12:36:04;;;;;;;29.03;8.33;;;;;;;22.00;43.12;95364.16;6219944;23;20259;-85
2022/04/01 12:39:03;;;;;;;46.10;9.13;;;;;;;21.48;44.61;95346.50;6221219;23;20238;-84
2022/04/01 12:41:33;;;;;;;39.30;9.70;;;;;;;21.17;45.88;95340.50;6240616;23;20296;-85
2022/04/01 12:44:13;;;;;;;47.00;9.43;;;;;;;21.12;45.80;95326.25;6238956;23;20171;-84
2022/04/01 12:46:50;;;;;;;38.07;9.10;;;;;;;20.50;46.58;95276.31;6240030;23;20173;-85
2022/04/01 12:49:20;;;;;;;40.30;8.67;;;;;;;20.53;45.84;95268.06;6241989;23;20150;-86
2022/04/01 12:52:01;;;;;;;45.93;9.93;;;;;;;21.17;45.25;95345.78;6211240;23;20186;-85
2022/04/01 12:55:00;;;;;;;30.13;8.30;;;;;;;21.04;46.04;95371.88;6230902;23;20184;-85
2022/04/01 12:57:33;;;;;;;41.83;8.43;;;;;;;21.08;45.87;95373.16;6230543;23;20205;-85
2022/04/01 13:00:01;;;;;;;39.67;10.00;;;;;;;21.29;45.50;95362.78;6230151;23;20169;-84